PWSweather.com
Personal Weather Stations
Station Observations
KVAGLENALL
West Henrico, Glen Allen, VA 23060-6503

West HenricoGlen Allen, VA 23060-6503

Lat: 37.6554, Lon: -77.5693

Elevation: 273

Station Type: Davis Vantage Pro II

Latest ConditionsUpdated 10:00:24 AM EDT Monday, Jun 26, 2017
Currently Today's Max Today's Min Today's Average
Temperature 75.7°F24.3°C 75.7°F24.3°C 57.0°F13.9°C 62.7°F17.1°C
Dew Point 55.2°F12.9°C 59.6°F15.3°C 53.2°F11.8°C 55.6°F13.1°C
Winds 1.0 mph NE1.6 kmh NE 5.1 mph N8.2 kmh N - 0.5 mph 0.8 kmh
Wind Gusts 3.1 mph5.0 kmh 11.2 mph18.0 kmh - -
Humidity 49% 89% 48% 79%
Pressure 30.09 in1019.0 mb 30.10 in1019.3 mb 30.04 in1017.3 mb -
Hour Temp Dew Point Humidity Winds Wind Gusts Pressure Precip Precip Rate Daily Precip Total
10:00 AM 75.7°F24.3°C 55.2°F12.9°C 49% 1.0 mph NE1.6 kmh NE 3.1 mph5.0 kmh 30.09 in1019.0 mb 0.00 in0.0 mm 0.00 in0.0 mm 0.00 in0.0 mm
09:45 AM 74.8°F23.8°C 53.8°F12.1°C 48% 3.0 mph NE4.8 kmh NE 3.1 mph5.0 kmh 30.10 in1019.3 mb 0.00 in0.0 mm 0.00 in0.0 mm 0.00 in0.0 mm
09:30 AM 74.7°F23.7°C 55.9°F13.3°C 52% 5.1 mph N8.2 kmh N 11.2 mph18.0 kmh 30.09 in1019.0 mb 0.00 in0.0 mm 0.00 in0.0 mm 0.00 in0.0 mm
09:15 AM 73.4°F23.0°C 55.7°F13.2°C 54% 0.1 mph NNE0.2 kmh NNE 5.1 mph8.2 kmh 30.09 in1019.0 mb 0.00 in0.0 mm 0.00 in0.0 mm 0.00 in0.0 mm
09:00 AM 72.0°F22.2°C 57.3°F14.1°C 60% 4.1 mph NNE6.6 kmh NNE 5.1 mph8.2 kmh 30.09 in1019.0 mb 0.00 in0.0 mm 0.00 in0.0 mm 0.00 in0.0 mm
08:45 AM 70.1°F21.2°C 56.0°F13.3°C 61% 0.1 mph N0.2 kmh N 5.1 mph8.2 kmh 30.09 in1019.0 mb 0.00 in0.0 mm 0.00 in0.0 mm 0.00 in0.0 mm
08:30 AM 67.6°F19.8°C 55.5°F13.1°C 65% 2.0 mph NE3.2 kmh NE 5.1 mph8.2 kmh 30.09 in1019.0 mb 0.00 in0.0 mm 0.00 in0.0 mm 0.00 in0.0 mm
08:15 AM 65.7°F18.7°C 56.1°F13.4°C 71% 0.1 mph N0.2 kmh N 1.1 mph1.8 kmh 30.09 in1019.0 mb 0.00 in0.0 mm 0.00 in0.0 mm 0.00 in0.0 mm
08:00 AM 64.3°F17.9°C 55.9°F13.3°C 74% 0.1 mph N0.2 kmh N 3.1 mph5.0 kmh 30.09 in1019.0 mb 0.00 in0.0 mm 0.00 in0.0 mm 0.00 in0.0 mm
07:45 AM 62.9°F17.2°C 55.6°F13.1°C 77% 0.1 mph ENE0.2 kmh ENE 3.1 mph5.0 kmh 30.09 in1019.0 mb 0.00 in0.0 mm 0.00 in0.0 mm 0.00 in0.0 mm
07:30 AM 61.5°F16.4°C 55.3°F12.9°C 80% 1.0 mph NNW1.6 kmh NNW 1.1 mph1.8 kmh 30.08 in1018.6 mb 0.00 in0.0 mm 0.00 in0.0 mm 0.00 in0.0 mm
07:15 AM 60.0°F15.6°C 55.2°F12.9°C 84% 0.1 mph N0.2 kmh N 1.1 mph1.8 kmh 30.07 in1018.3 mb 0.00 in0.0 mm 0.00 in0.0 mm 0.00 in0.0 mm
07:00 AM 58.7°F14.8°C 55.2°F12.9°C 88% 0.1 mph N0.2 kmh N 1.1 mph1.8 kmh 30.07 in1018.3 mb 0.00 in0.0 mm 0.00 in0.0 mm 0.00 in0.0 mm
06:45 AM 57.7°F14.3°C 54.5°F12.5°C 89% 0.1 mph NNE0.2 kmh NNE 0.1 mph0.2 kmh 30.07 in1018.3 mb 0.00 in0.0 mm 0.00 in0.0 mm 0.00 in0.0 mm
06:30 AM 57.2°F14.0°C 54.0°F12.2°C 89% 0.1 mph NNE0.2 kmh NNE 0.1 mph0.2 kmh 30.07 in1018.3 mb 0.00 in0.0 mm 0.00 in0.0 mm 0.00 in0.0 mm
06:15 AM 57.0°F13.9°C 53.5°F11.9°C 88% 0.1 mph NNE0.2 kmh NNE 0.1 mph0.2 kmh 30.07 in1018.3 mb 0.00 in0.0 mm 0.00 in0.0 mm 0.00 in0.0 mm
06:00 AM 57.2°F14.0°C 53.4°F11.9°C 87% 0.1 mph NNE0.2 kmh NNE 0.1 mph0.2 kmh 30.07 in1018.3 mb 0.00 in0.0 mm 0.00 in0.0 mm 0.00 in0.0 mm
05:45 AM 57.6°F14.2°C 53.8°F12.1°C 87% 0.1 mph NNE0.2 kmh NNE 0.1 mph0.2 kmh 30.06 in1017.9 mb 0.00 in0.0 mm 0.00 in0.0 mm 0.00 in0.0 mm
05:30 AM 57.6°F14.2°C 53.4°F11.9°C 86% 0.1 mph NNE0.2 kmh NNE 1.1 mph1.8 kmh 30.06 in1017.9 mb 0.00 in0.0 mm 0.00 in0.0 mm 0.00 in0.0 mm
05:15 AM 57.7°F14.3°C 53.2°F11.8°C 85% 0.1 mph NE0.2 kmh NE 0.1 mph0.2 kmh 30.05 in1017.6 mb 0.00 in0.0 mm 0.00 in0.0 mm 0.00 in0.0 mm
05:00 AM 58.0°F14.4°C 53.5°F11.9°C 85% 0.1 mph NE0.2 kmh NE 0.1 mph0.2 kmh 30.05 in1017.6 mb 0.00 in0.0 mm 0.00 in0.0 mm 0.00 in0.0 mm
04:45 AM 58.1°F14.5°C 53.3°F11.8°C 84% 0.1 mph NE0.2 kmh NE 0.1 mph0.2 kmh 30.05 in1017.6 mb 0.00 in0.0 mm 0.00 in0.0 mm 0.00 in0.0 mm
04:30 AM 58.3°F14.6°C 53.5°F11.9°C 84% 0.1 mph NE0.2 kmh NE 0.1 mph0.2 kmh 30.05 in1017.6 mb 0.00 in0.0 mm 0.00 in0.0 mm 0.00 in0.0 mm
04:15 AM 58.5°F14.7°C 53.4°F11.9°C 83% 0.1 mph NE0.2 kmh NE 0.1 mph0.2 kmh 30.05 in1017.6 mb 0.00 in0.0 mm 0.00 in0.0 mm 0.00 in0.0 mm
04:00 AM 59.0°F15.0°C 54.2°F12.3°C 84% 0.1 mph NE0.2 kmh NE 0.1 mph0.2 kmh 30.04 in1017.3 mb 0.00 in0.0 mm 0.00 in0.0 mm 0.00 in0.0 mm
03:45 AM 59.4°F15.2°C 54.2°F12.3°C 83% 0.1 mph NE0.2 kmh NE 0.1 mph0.2 kmh 30.04 in1017.3 mb 0.00 in0.0 mm 0.00 in0.0 mm 0.00 in0.0 mm
03:30 AM 59.7°F15.4°C 54.5°F12.5°C 83% 0.1 mph NE0.2 kmh NE 0.1 mph0.2 kmh 30.04 in1017.3 mb 0.00 in0.0 mm 0.00 in0.0 mm 0.00 in0.0 mm
03:15 AM 60.2°F15.7°C 55.0°F12.8°C 83% 0.1 mph NE0.2 kmh NE 0.1 mph0.2 kmh 30.04 in1017.3 mb 0.00 in0.0 mm 0.00 in0.0 mm 0.00 in0.0 mm
03:00 AM 60.6°F15.9°C 55.1°F12.8°C 82% 0.1 mph NE0.2 kmh NE 0.1 mph0.2 kmh 30.04 in1017.3 mb 0.00 in0.0 mm 0.00 in0.0 mm 0.00 in0.0 mm
02:45 AM 60.7°F15.9°C 55.2°F12.9°C 82% 0.1 mph NE0.2 kmh NE 0.1 mph0.2 kmh 30.05 in1017.6 mb 0.00 in0.0 mm 0.00 in0.0 mm 0.00 in0.0 mm
02:30 AM 61.0°F16.1°C 56.5°F13.6°C 85% 0.1 mph NE0.2 kmh NE 0.1 mph0.2 kmh 30.05 in1017.6 mb 0.00 in0.0 mm 0.00 in0.0 mm 0.00 in0.0 mm
02:15 AM 61.2°F16.2°C 56.7°F13.7°C 85% 0.1 mph NE0.2 kmh NE 0.1 mph0.2 kmh 30.05 in1017.6 mb 0.00 in0.0 mm 0.00 in0.0 mm 0.00 in0.0 mm
02:00 AM 61.6°F16.4°C 57.1°F13.9°C 85% 0.1 mph NE0.2 kmh NE 0.1 mph0.2 kmh 30.05 in1017.6 mb 0.00 in0.0 mm 0.00 in0.0 mm 0.00 in0.0 mm
01:45 AM 62.3°F16.8°C 57.4°F14.1°C 84% 0.1 mph NE0.2 kmh NE 0.1 mph0.2 kmh 30.05 in1017.6 mb 0.00 in0.0 mm 0.00 in0.0 mm 0.00 in0.0 mm
01:30 AM 62.8°F17.1°C 57.9°F14.4°C 84% 0.1 mph NE0.2 kmh NE 0.1 mph0.2 kmh 30.06 in1017.9 mb 0.00 in0.0 mm 0.00 in0.0 mm 0.00 in0.0 mm
01:15 AM 63.3°F17.4°C 58.1°F14.5°C 83% 0.1 mph NE0.2 kmh NE 0.1 mph0.2 kmh 30.06 in1017.9 mb 0.00 in0.0 mm 0.00 in0.0 mm 0.00 in0.0 mm
01:00 AM 63.5°F17.5°C 57.9°F14.4°C 82% 0.1 mph NE0.2 kmh NE 0.1 mph0.2 kmh 30.05 in1017.6 mb 0.00 in0.0 mm 0.00 in0.0 mm 0.00 in0.0 mm
12:45 AM 64.1°F17.8°C 58.5°F14.7°C 82% 0.1 mph NE0.2 kmh NE 0.1 mph0.2 kmh 30.05 in1017.6 mb 0.00 in0.0 mm 0.00 in0.0 mm 0.00 in0.0 mm
12:30 AM 64.7°F18.2°C 59.1°F15.1°C 82% 0.1 mph NE0.2 kmh NE 0.1 mph0.2 kmh 30.05 in1017.6 mb 0.00 in0.0 mm 0.00 in0.0 mm 0.00 in0.0 mm
12:15 AM 65.5°F18.6°C 59.6°F15.3°C 81% 0.1 mph NE0.2 kmh NE 0.1 mph0.2 kmh 30.05 in1017.6 mb 0.00 in0.0 mm 0.00 in0.0 mm 0.00 in0.0 mm
12:00 AM 66.2°F19.0°C 59.5°F15.3°C 79% 0.1 mph NE0.2 kmh NE 0.1 mph0.2 kmh 30.05 in1017.6 mb 0.00 in0.0 mm 0.00 in0.0 mm 0.00 in0.0 mm